Airport View

Enter AWOS ICAO identifier for current METAR.

ex. KFNL

KESC 210108Z AUTO 00000KT 1/2SM FG VV002 16/16 A3011 RMK AO2

21 Sep 2019 01:13

Frequency: 121.425

Phone: 906-786-9001

Other Area AWOS: K2P2 - K3D2 - KSAW - KISQ

TAF KSAW 202336Z 2100/2124 18005KT P6SM SCT025 FM210200 18006KT 5SM BR BKN015 FM211300 19009KT 4SM BR BKN020 FM211500 18010KT P6SM BKN040 FM212100 18013G21KT P6SM BKN020